sensor_id;sensor_type;location;lat;lon;timestamp;P1;durP1;ratioP1;P2;durP2;ratioP2
20042;SDS011;10182;52.896;6.496;2024-03-02T05:45:53;2.73;;;2.50;;
20042;SDS011;10182;52.896;6.496;2024-03-02T05:50:54;3.83;;;2.70;;
20042;SDS011;10182;52.896;6.496;2024-03-02T05:55:56;4.33;;;3.13;;
20042;SDS011;10182;52.896;6.496;2024-03-02T06:01:00;4.87;;;2.80;;
20042;SDS011;10182;52.896;6.496;2024-03-02T06:06:01;4.43;;;2.60;;
20042;SDS011;10182;52.896;6.496;2024-03-02T06:11:03;3.93;;;2.83;;
20042;SDS011;10182;52.896;6.496;2024-03-02T06:16:06;3.10;;;2.57;;
20042;SDS011;10182;52.896;6.496;2024-03-02T06:21:09;4.17;;;2.37;;
20042;SDS011;10182;52.896;6.496;2024-03-02T06:26:10;2.60;;;2.10;;
20042;SDS011;10182;52.896;6.496;2024-03-02T06:31:13;2.67;;;2.43;;
20042;SDS011;10182;52.896;6.496;2024-03-02T06:36:15;3.47;;;2.30;;
20042;SDS011;10182;52.896;6.496;2024-03-02T06:41:17;3.43;;;2.80;;
20042;SDS011;10182;52.896;6.496;2024-03-02T06:46:20;2.97;;;2.27;;
20042;SDS011;10182;52.896;6.496;2024-03-02T06:51:21;2.00;;;1.70;;
20042;SDS011;10182;52.896;6.496;2024-03-02T06:56:23;3.03;;;1.50;;
20042;SDS011;10182;52.896;6.496;2024-03-02T07:01:26;3.27;;;0.93;;
20042;SDS011;10182;52.896;6.496;2024-03-02T07:06:29;3.47;;;0.70;;
20042;SDS011;10182;52.896;6.496;2024-03-02T07:11:31;0.90;;;0.57;;
20042;SDS011;10182;52.896;6.496;2024-03-02T07:16:34;1.90;;;0.90;;
20042;SDS011;10182;52.896;6.496;2024-03-02T07:21:40;1.07;;;0.90;;
20042;SDS011;10182;52.896;6.496;2024-03-02T07:26:42;2.83;;;1.00;;
20042;SDS011;10182;52.896;6.496;2024-03-02T07:31:45;1.33;;;0.50;;
20042;SDS011;10182;52.896;6.496;2024-03-02T07:36:47;0.80;;;0.80;;
20042;SDS011;10182;52.896;6.496;2024-03-02T07:41:48;0.70;;;0.53;;
20042;SDS011;10182;52.896;6.496;2024-03-02T07:46:51;1.80;;;0.70;;
20042;SDS011;10182;52.896;6.496;2024-03-02T07:51:53;0.57;;;0.57;;
20042;SDS011;10182;52.896;6.496;2024-03-02T07:56:55;2.37;;;0.90;;
20042;SDS011;10182;52.896;6.496;2024-03-02T08:01:59;1.00;;;0.70;;
20042;SDS011;10182;52.896;6.496;2024-03-02T08:07:01;0.60;;;0.60;;
20042;SDS011;10182;52.896;6.496;2024-03-02T08:12:03;1.73;;;0.60;;
20042;SDS011;10182;52.896;6.496;2024-03-02T08:17:06;0.87;;;0.60;;
20042;SDS011;10182;52.896;6.496;2024-03-02T08:22:10;0.70;;;0.57;;
20042;SDS011;10182;52.896;6.496;2024-03-02T08:27:12;1.20;;;0.70;;
20042;SDS011;10182;52.896;6.496;2024-03-02T08:32:15;0.70;;;0.47;;
20042;SDS011;10182;52.896;6.496;2024-03-02T08:37:17;2.13;;;0.70;;
20042;SDS011;10182;52.896;6.496;2024-03-02T08:42:19;2.23;;;0.87;;
20042;SDS011;10182;52.896;6.496;2024-03-02T08:47:22;2.80;;;0.57;;
20042;SDS011;10182;52.896;6.496;2024-03-02T08:52:24;2.80;;;0.63;;
20042;SDS011;10182;52.896;6.496;2024-03-02T08:57:26;1.90;;;0.90;;
20042;SDS011;10182;52.896;6.496;2024-03-02T09:02:29;4.40;;;1.07;;
20042;SDS011;10182;52.896;6.496;2024-03-02T09:07:31;3.07;;;1.00;;
20042;SDS011;10182;52.896;6.496;2024-03-02T09:12:32;1.33;;;0.60;;
20042;SDS011;10182;52.896;6.496;2024-03-02T09:17:35;2.83;;;0.97;;
20042;SDS011;10182;52.896;6.496;2024-03-02T09:22:37;1.60;;;1.23;;
20042;SDS011;10182;52.896;6.496;2024-03-02T09:27:39;1.67;;;1.37;;
20042;SDS011;10182;52.896;6.496;2024-03-02T09:32:42;1.80;;;1.40;;
20042;SDS011;10182;52.896;6.496;2024-03-02T09:37:44;2.20;;;1.60;;
20042;SDS011;10182;52.896;6.496;2024-03-02T09:42:45;1.00;;;0.90;;
20042;SDS011;10182;52.896;6.496;2024-03-02T09:47:53;1.57;;;1.17;;
20042;SDS011;10182;52.896;6.496;2024-03-02T09:52:56;1.50;;;1.10;;
20042;SDS011;10182;52.896;6.496;2024-03-02T09:57:58;4.27;;;1.33;;
20042;SDS011;10182;52.896;6.496;2024-03-02T10:03:01;3.47;;;0.93;;
20042;SDS011;10182;52.896;6.496;2024-03-02T10:08:02;2.17;;;1.10;;
20042;SDS011;10182;52.896;6.496;2024-03-02T10:13:05;1.60;;;1.00;;
20042;SDS011;10182;52.896;6.496;2024-03-02T10:18:10;2.40;;;1.00;;
20042;SDS011;10182;52.896;6.496;2024-03-02T10:23:13;1.53;;;1.00;;
20042;SDS011;10182;52.896;6.496;2024-03-02T10:28:16;2.60;;;0.70;;
20042;SDS011;10182;52.896;6.496;2024-03-02T10:33:19;3.40;;;0.70;;
20042;SDS011;10182;52.896;6.496;2024-03-02T10:38:21;5.70;;;1.17;;
20042;SDS011;10182;52.896;6.496;2024-03-02T10:43:23;1.50;;;0.90;;
20042;SDS011;10182;52.896;6.496;2024-03-02T10:48:26;2.00;;;0.80;;
20042;SDS011;10182;52.896;6.496;2024-03-02T10:53:29;0.70;;;0.70;;
20042;SDS011;10182;52.896;6.496;2024-03-02T10:58:32;1.40;;;0.87;;
20042;SDS011;10182;52.896;6.496;2024-03-02T11:03:36;1.00;;;0.80;;
20042;SDS011;10182;52.896;6.496;2024-03-02T11:08:38;2.03;;;0.97;;
20042;SDS011;10182;52.896;6.496;2024-03-02T11:13:44;0.60;;;0.57;;
20042;SDS011;10182;52.896;6.496;2024-03-02T11:18:52;1.33;;;0.70;;
20042;SDS011;10182;52.896;6.496;2024-03-02T11:23:54;3.23;;;1.03;;
20042;SDS011;10182;52.896;6.496;2024-03-02T11:28:56;2.43;;;0.70;;
20042;SDS011;10182;52.896;6.496;2024-03-02T11:34:00;2.80;;;0.80;;
20042;SDS011;10182;52.896;6.496;2024-03-02T11:39:18;4.47;;;1.10;;
20042;SDS011;10182;52.896;6.496;2024-03-02T11:44:20;2.03;;;0.60;;
20042;SDS011;10182;52.896;6.496;2024-03-02T11:49:37;2.40;;;1.00;;
20042;SDS011;10182;52.896;6.496;2024-03-02T11:54:41;2.80;;;1.30;;
20042;SDS011;10182;52.896;6.496;2024-03-02T11:59:47;3.43;;;1.00;;
20042;SDS011;10182;52.896;6.496;2024-03-02T12:04:51;3.23;;;1.00;;
20042;SDS011;10182;52.896;6.496;2024-03-02T12:09:59;3.20;;;1.17;;
20042;SDS011;10182;52.896;6.496;2024-03-02T12:15:01;2.33;;;1.00;;
20042;SDS011;10182;52.896;6.496;2024-03-02T12:20:05;2.53;;;0.97;;
20042;SDS011;10182;52.896;6.496;2024-03-02T12:25:08;2.70;;;1.20;;
20042;SDS011;10182;52.896;6.496;2024-03-02T12:30:10;3.00;;;1.40;;
20042;SDS011;10182;52.896;6.496;2024-03-02T12:35:15;2.73;;;1.30;;
20042;SDS011;10182;52.896;6.496;2024-03-02T12:40:17;2.10;;;1.40;;
20042;SDS011;10182;52.896;6.496;2024-03-02T12:45:20;1.97;;;1.77;;
20042;SDS011;10182;52.896;6.496;2024-03-02T12:50:25;4.77;;;2.10;;
20042;SDS011;10182;52.896;6.496;2024-03-02T12:55:27;3.03;;;2.00;;
20042;SDS011;10182;52.896;6.496;2024-03-02T13:00:29;2.47;;;1.90;;
20042;SDS011;10182;52.896;6.496;2024-03-02T13:05:36;5.30;;;1.90;;
20042;SDS011;10182;52.896;6.496;2024-03-02T13:10:38;2.67;;;1.40;;
20042;SDS011;10182;52.896;6.496;2024-03-02T13:15:41;3.17;;;1.63;;
20042;SDS011;10182;52.896;6.496;2024-03-02T13:20:44;3.23;;;1.40;;
20042;SDS011;10182;52.896;6.496;2024-03-02T13:25:46;3.60;;;1.37;;
20042;SDS011;10182;52.896;6.496;2024-03-02T13:30:48;2.43;;;1.60;;
20042;SDS011;10182;52.896;6.496;2024-03-02T13:35:51;2.40;;;1.70;;
20042;SDS011;10182;52.896;6.496;2024-03-02T13:40:53;3.03;;;1.67;;
20042;SDS011;10182;52.896;6.496;2024-03-02T13:45:55;4.67;;;2.60;;
20042;SDS011;10182;52.896;6.496;2024-03-02T13:50:58;3.10;;;2.70;;
20042;SDS011;10182;52.896;6.496;2024-03-02T13:56:00;4.23;;;3.53;;
20042;SDS011;10182;52.896;6.496;2024-03-02T14:01:02;5.73;;;3.97;;
20042;SDS011;10182;52.896;6.496;2024-03-02T14:06:06;4.77;;;4.30;;
20042;SDS011;10182;52.896;6.496;2024-03-02T14:11:07;4.77;;;4.10;;
20042;SDS011;10182;52.896;6.496;2024-03-02T14:16:11;4.07;;;3.60;;
20042;SDS011;10182;52.896;6.496;2024-03-02T14:21:14;3.30;;;2.93;;
20042;SDS011;10182;52.896;6.496;2024-03-02T14:26:16;3.70;;;2.47;;
20042;SDS011;10182;52.896;6.496;2024-03-02T14:31:19;2.07;;;1.93;;
20042;SDS011;10182;52.896;6.496;2024-03-02T14:36:22;2.97;;;1.60;;
20042;SDS011;10182;52.896;6.496;2024-03-02T14:41:24;2.43;;;1.80;;
20042;SDS011;10182;52.896;6.496;2024-03-02T14:46:26;3.23;;;1.90;;
20042;SDS011;10182;52.896;6.496;2024-03-02T14:51:29;2.53;;;1.93;;
20042;SDS011;10182;52.896;6.496;2024-03-02T14:56:31;4.27;;;2.17;;
20042;SDS011;10182;52.896;6.496;2024-03-02T15:01:32;2.50;;;2.03;;
20042;SDS011;10182;52.896;6.496;2024-03-02T15:06:36;2.43;;;2.23;;
20042;SDS011;10182;52.896;6.496;2024-03-02T15:11:37;3.87;;;2.50;;
20042;SDS011;10182;52.896;6.496;2024-03-02T15:16:39;3.23;;;2.00;;
20042;SDS011;10182;52.896;6.496;2024-03-02T15:21:43;2.03;;;1.80;;
20042;SDS011;10182;52.896;6.496;2024-03-02T15:26:45;2.87;;;2.33;;
20042;SDS011;10182;52.896;6.496;2024-03-02T15:31:46;2.33;;;1.60;;
20042;SDS011;10182;52.896;6.496;2024-03-02T15:36:50;3.00;;;1.87;;
20042;SDS011;10182;52.896;6.496;2024-03-02T15:41:52;3.70;;;1.90;;
20042;SDS011;10182;52.896;6.496;2024-03-02T15:46:53;3.13;;;1.50;;
20042;SDS011;10182;52.896;6.496;2024-03-02T15:51:56;3.30;;;2.03;;
20042;SDS011;10182;52.896;6.496;2024-03-02T15:57:00;2.13;;;1.90;;
20042;SDS011;10182;52.896;6.496;2024-03-02T16:02:02;1.20;;;1.10;;
20042;SDS011;10182;52.896;6.496;2024-03-02T16:07:06;4.70;;;2.07;;
20042;SDS011;10182;52.896;6.496;2024-03-02T16:12:07;2.80;;;2.00;;
20042;SDS011;10182;52.896;6.496;2024-03-02T16:17:09;4.00;;;2.17;;
20042;SDS011;10182;52.896;6.496;2024-03-02T16:22:12;3.37;;;2.30;;
20042;SDS011;10182;52.896;6.496;2024-03-02T16:27:14;3.63;;;2.10;;
20042;SDS011;10182;52.896;6.496;2024-03-02T16:32:18;2.97;;;1.90;;
20042;SDS011;10182;52.896;6.496;2024-03-02T16:37:20;2.17;;;1.97;;
20042;SDS011;10182;52.896;6.496;2024-03-02T16:42:25;4.57;;;2.13;;
20042;SDS011;10182;52.896;6.496;2024-03-02T16:47:26;2.23;;;2.03;;
20042;SDS011;10182;52.896;6.496;2024-03-02T16:52:29;4.43;;;2.33;;
20042;SDS011;10182;52.896;6.496;2024-03-02T16:57:31;2.83;;;2.30;;
20042;SDS011;10182;52.896;6.496;2024-03-02T17:02:33;2.87;;;2.30;;
20042;SDS011;10182;52.896;6.496;2024-03-02T17:07:36;4.43;;;2.80;;
20042;SDS011;10182;52.896;6.496;2024-03-02T17:12:37;4.77;;;3.43;;
20042;SDS011;10182;52.896;6.496;2024-03-02T17:17:39;3.10;;;2.80;;
20042;SDS011;10182;52.896;6.496;2024-03-02T17:22:42;3.10;;;2.70;;
20042;SDS011;10182;52.896;6.496;2024-03-02T17:27:44;2.30;;;2.10;;
20042;SDS011;10182;52.896;6.496;2024-03-02T17:32:45;9.53;;;5.33;;
20042;SDS011;10182;52.896;6.496;2024-03-02T17:37:48;4.50;;;2.90;;
20042;SDS011;10182;52.896;6.496;2024-03-02T17:42:51;2.43;;;1.90;;
20042;SDS011;10182;52.896;6.496;2024-03-02T17:47:53;4.27;;;2.33;;
20042;SDS011;10182;52.896;6.496;2024-03-02T17:52:56;2.30;;;2.10;;
20042;SDS011;10182;52.896;6.496;2024-03-02T17:57:58;4.93;;;2.00;;
20042;SDS011;10182;52.896;6.496;2024-03-02T18:02:59;2.90;;;2.20;;
20042;SDS011;10182;52.896;6.496;2024-03-02T18:08:02;2.67;;;1.90;;
20042;SDS011;10182;52.896;6.496;2024-03-02T18:13:05;3.17;;;2.20;;
20042;SDS011;10182;52.896;6.496;2024-03-02T18:18:07;3.13;;;1.67;;
20042;SDS011;10182;52.896;6.496;2024-03-02T18:23:10;2.97;;;2.00;;
20042;SDS011;10182;52.896;6.496;2024-03-02T18:28:13;3.10;;;1.63;;
20042;SDS011;10182;52.896;6.496;2024-03-02T18:33:14;3.50;;;2.00;;
20042;SDS011;10182;52.896;6.496;2024-03-02T18:38:18;2.17;;;1.97;;
20042;SDS011;10182;52.896;6.496;2024-03-02T18:43:19;2.57;;;2.10;;
20042;SDS011;10182;52.896;6.496;2024-03-02T18:48:21;2.37;;;1.67;;
20042;SDS011;10182;52.896;6.496;2024-03-02T18:53:24;3.37;;;2.17;;
20042;SDS011;10182;52.896;6.496;2024-03-02T18:58:25;3.23;;;2.30;;
20042;SDS011;10182;52.896;6.496;2024-03-02T19:03:27;1.87;;;1.63;;
20042;SDS011;10182;52.896;6.496;2024-03-02T19:08:31;1.83;;;1.57;;
20042;SDS011;10182;52.896;6.496;2024-03-02T19:13:32;2.83;;;2.10;;
20042;SDS011;10182;52.896;6.496;2024-03-02T19:18:34;2.33;;;2.00;;
20042;SDS011;10182;52.896;6.496;2024-03-02T19:23:37;2.63;;;2.00;;
20042;SDS011;10182;52.896;6.496;2024-03-02T19:28:39;2.13;;;1.90;;
20042;SDS011;10182;52.896;6.496;2024-03-02T19:33:40;4.37;;;2.50;;
20042;SDS011;10182;52.896;6.496;2024-03-02T19:38:43;2.43;;;2.10;;
20042;SDS011;10182;52.896;6.496;2024-03-02T19:43:45;4.17;;;3.77;;
20042;SDS011;10182;52.896;6.496;2024-03-02T19:48:47;2.97;;;2.30;;
20042;SDS011;10182;52.896;6.496;2024-03-02T19:53:52;4.57;;;2.40;;
20042;SDS011;10182;52.896;6.496;2024-03-02T19:58:57;3.30;;;3.00;;
20042;SDS011;10182;52.896;6.496;2024-03-02T20:03:59;3.57;;;2.70;;
20042;SDS011;10182;52.896;6.496;2024-03-02T20:09:04;5.80;;;3.17;;
20042;SDS011;10182;52.896;6.496;2024-03-02T20:14:08;3.87;;;3.57;;
20042;SDS011;10182;52.896;6.496;2024-03-02T20:19:10;8.27;;;5.90;;
20042;SDS011;10182;52.896;6.496;2024-03-02T20:24:13;4.10;;;3.70;;
20042;SDS011;10182;52.896;6.496;2024-03-02T20:29:15;4.90;;;3.53;;
20042;SDS011;10182;52.896;6.496;2024-03-02T20:34:16;4.43;;;4.03;;
20042;SDS011;10182;52.896;6.496;2024-03-02T20:39:19;4.40;;;3.97;;
20042;SDS011;10182;52.896;6.496;2024-03-02T20:44:21;4.13;;;3.33;;
20042;SDS011;10182;52.896;6.496;2024-03-02T20:49:26;4.63;;;4.10;;
20042;SDS011;10182;52.896;6.496;2024-03-02T20:54:31;4.37;;;3.97;;
20042;SDS011;10182;52.896;6.496;2024-03-02T20:59:33;4.97;;;3.93;;
20042;SDS011;10182;52.896;6.496;2024-03-02T21:04:35;4.20;;;3.80;;
20042;SDS011;10182;52.896;6.496;2024-03-02T21:09:38;4.40;;;4.00;;
20042;SDS011;10182;52.896;6.496;2024-03-02T21:14:39;3.93;;;3.43;;
20042;SDS011;10182;52.896;6.496;2024-03-02T21:19:41;4.67;;;3.80;;
20042;SDS011;10182;52.896;6.496;2024-03-02T21:24:44;5.70;;;3.43;;
20042;SDS011;10182;52.896;6.496;2024-03-02T21:29:46;3.40;;;2.87;;
20042;SDS011;10182;52.896;6.496;2024-03-02T21:34:48;3.40;;;2.97;;
20042;SDS011;10182;52.896;6.496;2024-03-02T21:39:51;3.70;;;3.00;;
20042;SDS011;10182;52.896;6.496;2024-03-02T21:44:53;3.70;;;3.00;;
20042;SDS011;10182;52.896;6.496;2024-03-02T21:49:55;3.80;;;3.50;;
20042;SDS011;10182;52.896;6.496;2024-03-02T21:54:59;4.87;;;3.37;;
20042;SDS011;10182;52.896;6.496;2024-03-02T22:00:01;3.50;;;3.20;;
20042;SDS011;10182;52.896;6.496;2024-03-02T22:05:03;5.87;;;3.40;;
20042;SDS011;10182;52.896;6.496;2024-03-02T22:10:07;3.60;;;3.30;;
20042;SDS011;10182;52.896;6.496;2024-03-02T22:15:14;4.00;;;3.40;;
20042;SDS011;10182;52.896;6.496;2024-03-02T22:20:18;4.10;;;3.67;;
20042;SDS011;10182;52.896;6.496;2024-03-02T22:25:21;4.13;;;3.73;;
20042;SDS011;10182;52.896;6.496;2024-03-02T22:30:22;4.03;;;3.40;;
20042;SDS011;10182;52.896;6.496;2024-03-02T22:35:26;4.20;;;3.80;;
20042;SDS011;10182;52.896;6.496;2024-03-02T22:40:29;4.47;;;4.00;;
20042;SDS011;10182;52.896;6.496;2024-03-02T22:45:33;4.80;;;4.33;;
20042;SDS011;10182;52.896;6.496;2024-03-02T22:50:35;5.20;;;4.70;;
20042;SDS011;10182;52.896;6.496;2024-03-02T22:55:38;6.70;;;4.50;;
20042;SDS011;10182;52.896;6.496;2024-03-02T23:00:40;4.80;;;4.17;;
20042;SDS011;10182;52.896;6.496;2024-03-02T23:05:48;5.70;;;4.63;;
20042;SDS011;10182;52.896;6.496;2024-03-02T23:10:51;4.87;;;4.43;;
20042;SDS011;10182;52.896;6.496;2024-03-02T23:15:53;5.83;;;4.57;;
20042;SDS011;10182;52.896;6.496;2024-03-02T23:20:54;4.93;;;4.40;;
20042;SDS011;10182;52.896;6.496;2024-03-02T23:25:57;5.80;;;5.00;;
20042;SDS011;10182;52.896;6.496;2024-03-02T23:30:59;7.20;;;5.63;;
20042;SDS011;10182;52.896;6.496;2024-03-02T23:36:01;7.47;;;5.50;;
20042;SDS011;10182;52.896;6.496;2024-03-02T23:41:04;6.97;;;6.00;;
20042;SDS011;10182;52.896;6.496;2024-03-02T23:46:10;6.60;;;5.90;;
20042;SDS011;10182;52.896;6.496;2024-03-02T23:51:11;7.70;;;5.67;;
20042;SDS011;10182;52.896;6.496;2024-03-02T23:56:15;6.10;;;4.63;;
